createdAt,value
2023-03-17T00:01:44.777Z,1.06
2023-03-17T00:04:12.440Z,1.02
2023-03-17T00:06:40.317Z,1.04
2023-03-17T00:09:14.719Z,0.79
2023-03-17T00:11:41.749Z,0.81
2023-03-17T00:14:08.439Z,0.72
2023-03-17T00:16:37.404Z,0.90
2023-03-17T00:19:04.104Z,0.95
2023-03-17T00:21:31.950Z,0.99
2023-03-17T00:23:59.578Z,0.98
2023-03-17T00:26:26.707Z,0.74
2023-03-17T00:28:54.751Z,0.84
2023-03-17T00:31:25.479Z,0.71
2023-03-17T00:33:54.015Z,0.82
2023-03-17T00:36:26.110Z,0.60
2023-03-17T00:38:52.840Z,0.74
2023-03-17T00:41:20.056Z,0.76
2023-03-17T00:43:46.641Z,0.58
2023-03-17T00:46:14.805Z,0.45
2023-03-17T00:48:41.770Z,0.47
2023-03-17T00:51:10.925Z,0.62
2023-03-17T00:53:37.733Z,0.63
2023-03-17T00:56:06.407Z,0.49
2023-03-17T00:58:33.962Z,0.44
2023-03-17T01:01:00.946Z,0.11
2023-03-17T01:03:28.008Z,0.38
2023-03-17T01:05:57.719Z,0.50
2023-03-17T01:08:25.706Z,0.11
2023-03-17T01:10:52.386Z,0.25
2023-03-17T01:13:19.281Z,0.24
2023-03-17T01:15:47.117Z,0.32
2023-03-17T01:18:16.004Z,0.38
2023-03-17T01:20:42.840Z,0.03
2023-03-17T01:23:09.652Z,0.05
2023-03-17T01:25:36.558Z,0.12
2023-03-17T01:28:03.414Z,0.07
2023-03-17T01:30:32.763Z,0.15
2023-03-17T01:32:59.531Z,0.21
2023-03-17T01:35:26.921Z,0.22
2023-03-17T01:37:53.431Z,0.23
2023-03-17T01:40:22.240Z,0.14
2023-03-17T01:43:00.361Z,-0.20
2023-03-17T01:45:45.972Z,-0.29
2023-03-17T01:48:13.472Z,-0.09
2023-03-17T01:50:41.071Z,0.06
2023-03-17T01:53:07.568Z,-0.18
2023-03-17T01:55:34.419Z,-0.12
2023-03-17T01:58:01.123Z,-0.07
2023-03-17T02:00:27.748Z,-0.01
2023-03-17T02:02:56.275Z,-0.29
2023-03-17T02:05:25.971Z,-0.56
2023-03-17T02:07:53.603Z,-0.42
2023-03-17T02:10:26.205Z,-0.54
2023-03-17T02:13:00.389Z,-0.29
2023-03-17T02:15:35.753Z,-0.52
2023-03-17T02:18:02.227Z,-0.31
2023-03-17T02:20:29.133Z,-0.17
2023-03-17T02:22:57.224Z,-0.29
2023-03-17T02:25:24.785Z,-0.17
2023-03-17T02:27:55.549Z,-0.19
2023-03-17T02:30:22.743Z,-0.09
2023-03-17T02:32:49.424Z,-0.30
2023-03-17T02:35:16.454Z,-0.36
2023-03-17T02:37:43.791Z,-0.47
2023-03-17T02:40:11.311Z,-0.42
2023-03-17T02:42:39.423Z,-0.34
2023-03-17T02:45:06.612Z,-0.34
2023-03-17T02:47:33.319Z,-0.46
2023-03-17T02:49:59.973Z,-0.49
2023-03-17T02:52:26.999Z,-0.59
2023-03-17T02:54:53.548Z,-0.55
2023-03-17T02:57:20.015Z,-0.49
2023-03-17T02:59:46.532Z,-0.50
2023-03-17T03:02:14.255Z,-0.73
2023-03-17T03:04:41.836Z,-0.56
2023-03-17T03:07:08.691Z,-0.49
2023-03-17T03:09:35.349Z,-0.56
2023-03-17T03:12:01.991Z,-0.53
2023-03-17T03:14:28.508Z,-0.53
2023-03-17T03:16:54.976Z,-0.83
2023-03-17T03:19:22.330Z,-0.99
2023-03-17T03:21:49.353Z,-0.73
2023-03-17T03:24:15.948Z,-0.59
2023-03-17T03:26:42.532Z,-0.64
2023-03-17T03:29:09.103Z,-0.86
2023-03-17T03:31:35.753Z,-0.71
2023-03-17T03:34:02.218Z,-0.81
2023-03-17T03:36:28.802Z,-0.77
2023-03-17T03:38:55.291Z,-0.71
2023-03-17T03:41:21.863Z,-0.75
2023-03-17T03:43:48.338Z,-0.94
2023-03-17T03:46:15.781Z,-0.84
2023-03-17T03:48:42.344Z,-0.77
2023-03-17T03:51:08.788Z,-0.82
2023-03-17T03:53:35.608Z,-1.02
2023-03-17T03:56:02.163Z,-1.10
2023-03-17T03:58:28.865Z,-0.87
2023-03-17T04:00:55.751Z,-0.77
2023-03-17T04:03:22.287Z,-0.78
2023-03-17T04:05:48.734Z,-0.71
2023-03-17T04:08:15.374Z,-0.83
2023-03-17T04:10:42.180Z,-0.91
2023-03-17T04:13:08.655Z,-0.89
2023-03-17T04:15:35.100Z,-0.65
2023-03-17T04:18:01.558Z,-0.72
2023-03-17T04:20:28.354Z,-0.95
2023-03-17T04:22:55.163Z,-1.12
2023-03-17T04:25:21.697Z,-0.90
2023-03-17T04:27:48.170Z,-1.12
2023-03-17T04:30:16.666Z,-0.94
2023-03-17T04:32:43.287Z,-1.10
2023-03-17T04:35:13.944Z,-1.22
2023-03-17T04:37:40.482Z,-0.92
2023-03-17T04:40:09.931Z,-1.03
2023-03-17T04:42:37.002Z,-1.02
2023-03-17T04:45:04.125Z,-0.90
2023-03-17T04:47:31.015Z,-1.12
2023-03-17T04:49:57.487Z,-1.15
2023-03-17T04:52:23.933Z,-1.10
2023-03-17T04:54:50.463Z,-1.03
2023-03-17T04:57:16.937Z,-0.80
2023-03-17T04:59:43.587Z,-0.91
2023-03-17T05:02:10.158Z,-1.05
2023-03-17T05:04:36.799Z,-0.95
2023-03-17T05:07:03.626Z,-1.03
2023-03-17T05:09:30.390Z,-1.16
2023-03-17T05:11:56.875Z,-1.05
2023-03-17T05:14:23.346Z,-0.94
2023-03-17T05:16:49.997Z,-0.82
2023-03-17T05:19:17.497Z,-1.09
2023-03-17T05:21:44.111Z,-1.02
2023-03-17T05:24:10.661Z,-1.07
2023-03-17T05:26:37.294Z,-1.32
2023-03-17T05:29:03.990Z,-1.32
2023-03-17T05:31:31.061Z,-1.42
2023-03-17T05:33:57.997Z,-1.37
2023-03-17T05:36:25.024Z,-1.21
2023-03-17T05:38:52.311Z,-1.45
2023-03-17T05:41:18.862Z,-1.28
2023-03-17T05:43:45.452Z,-0.89
2023-03-17T05:46:12.021Z,-0.78
2023-03-17T05:48:38.494Z,-0.83
2023-03-17T05:51:05.145Z,-0.68
2023-03-17T05:53:31.557Z,-0.47
2023-03-17T05:55:58.153Z,-0.35
2023-03-17T05:58:24.688Z,-0.23
2023-03-17T06:00:51.647Z,0.04
2023-03-17T06:03:18.197Z,0.26
2023-03-17T06:05:44.676Z,0.54
2023-03-17T06:08:11.374Z,0.56
2023-03-17T06:10:37.838Z,0.49
2023-03-17T06:13:04.563Z,0.88
2023-03-17T06:15:31.490Z,1.10
2023-03-17T06:17:58.077Z,1.70
2023-03-17T06:20:25.144Z,1.98
2023-03-17T06:23:03.258Z,2.11
2023-03-17T06:25:31.166Z,2.68
2023-03-17T06:27:57.891Z,3.07
2023-03-17T06:30:24.452Z,3.17
2023-03-17T06:32:51.006Z,3.33
2023-03-17T06:35:18.131Z,3.38
2023-03-17T06:37:44.854Z,3.92
2023-03-17T06:40:12.585Z,4.32
2023-03-17T06:42:39.041Z,4.37
2023-03-17T06:45:05.719Z,4.36
2023-03-17T06:47:32.224Z,4.63
2023-03-17T06:49:58.717Z,5.10
2023-03-17T06:52:25.325Z,5.67
2023-03-17T06:54:52.072Z,5.73
2023-03-17T06:57:18.569Z,6.15
2023-03-17T06:59:45.814Z,6.10
2023-03-17T07:02:12.738Z,6.30
2023-03-17T07:04:39.470Z,6.24
2023-03-17T07:07:06.124Z,6.06
2023-03-17T07:09:35.681Z,6.52
2023-03-17T07:12:05.111Z,6.08
2023-03-17T07:14:33.852Z,5.75
2023-03-17T07:17:00.359Z,5.25
2023-03-17T07:19:27.310Z,5.90
2023-03-17T07:21:55.792Z,6.69
2023-03-17T07:24:22.686Z,6.70
2023-03-17T07:26:49.281Z,6.41
2023-03-17T07:29:16.559Z,6.15
2023-03-17T07:31:44.058Z,6.19
2023-03-17T07:34:11.241Z,5.65
2023-03-17T07:36:37.723Z,5.71
2023-03-17T07:39:04.697Z,5.92
2023-03-17T07:41:31.304Z,6.03
2023-03-17T07:43:57.826Z,6.04
2023-03-17T07:46:24.404Z,6.04
2023-03-17T07:48:51.079Z,5.77
2023-03-17T07:51:19.050Z,6.07
2023-03-17T07:53:46.388Z,6.06
2023-03-17T07:56:12.883Z,6.44
2023-03-17T07:58:40.147Z,6.38
2023-03-17T08:01:08.756Z,5.82
2023-03-17T08:03:35.683Z,6.23
2023-03-17T08:06:02.922Z,6.40
2023-03-17T08:08:29.704Z,6.21
2023-03-17T08:11:04.540Z,6.92
2023-03-17T08:13:31.334Z,6.50
2023-03-17T08:15:58.186Z,6.70
2023-03-17T08:18:24.659Z,6.50
2023-03-17T08:20:51.437Z,6.87
2023-03-17T08:23:18.795Z,6.78
2023-03-17T08:25:45.746Z,6.63
2023-03-17T08:28:12.535Z,6.57
2023-03-17T08:30:39.335Z,6.59
2023-03-17T08:33:06.259Z,7.82
2023-03-17T08:35:33.160Z,7.53
2023-03-17T08:38:00.147Z,8.10
2023-03-17T08:40:26.997Z,8.16
2023-03-17T08:42:53.480Z,8.46
2023-03-17T08:45:19.984Z,8.21
2023-03-17T08:47:47.707Z,8.79
2023-03-17T08:50:21.934Z,7.95
2023-03-17T08:52:49.028Z,8.76
2023-03-17T08:55:16.247Z,9.34
2023-03-17T08:57:44.576Z,8.93
2023-03-17T09:00:16.239Z,8.94
2023-03-17T09:02:43.637Z,9.01
2023-03-17T09:05:11.755Z,9.58
2023-03-17T09:07:38.365Z,9.47
2023-03-17T09:10:07.243Z,10.74
2023-03-17T09:12:34.308Z,10.74
2023-03-17T09:15:01.813Z,10.22
2023-03-17T09:17:28.310Z,10.51
2023-03-17T09:19:54.762Z,11.03
2023-03-17T09:22:21.653Z,11.07
2023-03-17T09:24:48.146Z,10.75
2023-03-17T09:27:14.628Z,11.61
2023-03-17T09:29:42.219Z,11.66
2023-03-17T09:32:08.776Z,11.35
2023-03-17T09:34:35.885Z,11.27
2023-03-17T09:37:02.436Z,10.62
2023-03-17T09:39:29.035Z,10.96
2023-03-17T09:41:57.083Z,10.97
2023-03-17T09:44:42.001Z,11.49
2023-03-17T09:47:27.438Z,11.73
2023-03-17T09:50:03.062Z,10.97
2023-03-17T09:52:31.699Z,11.93
2023-03-17T09:54:58.982Z,12.55
2023-03-17T09:57:29.303Z,12.67
2023-03-17T10:00:06.538Z,12.54
2023-03-17T10:02:35.414Z,12.53
2023-03-17T10:05:19.520Z,12.78
2023-03-17T10:07:49.441Z,12.53
2023-03-17T10:10:20.082Z,12.40
2023-03-17T10:12:54.653Z,12.96
2023-03-17T10:15:34.645Z,12.24
2023-03-17T10:18:02.453Z,13.34
2023-03-17T10:20:33.146Z,13.53
2023-03-17T10:23:12.280Z,13.55
2023-03-17T10:25:39.409Z,13.18
2023-03-17T10:28:09.185Z,13.77
2023-03-17T10:30:35.770Z,13.82
2023-03-17T10:33:03.832Z,13.13
2023-03-17T10:35:36.022Z,12.95
2023-03-17T10:38:14.873Z,11.84
2023-03-17T10:40:44.108Z,12.92
2023-03-17T10:43:14.274Z,12.64
2023-03-17T10:45:47.402Z,13.64
2023-03-17T10:48:18.805Z,13.14
2023-03-17T10:50:48.613Z,13.94
2023-03-17T10:53:28.355Z,14.08
2023-03-17T10:55:58.581Z,14.06
2023-03-17T10:58:39.082Z,14.27
2023-03-17T11:01:05.714Z,14.07
2023-03-17T11:03:35.309Z,15.04
2023-03-17T11:06:10.173Z,15.12
2023-03-17T11:08:43.020Z,14.21
2023-03-17T11:11:27.038Z,14.76
2023-03-17T11:14:11.613Z,14.96
2023-03-17T11:16:40.687Z,14.70
2023-03-17T11:19:12.228Z,13.40
2023-03-17T11:21:55.460Z,14.41
2023-03-17T11:24:30.865Z,14.75
2023-03-17T11:26:58.461Z,14.54
2023-03-17T11:29:34.315Z,15.33
2023-03-17T11:32:06.403Z,14.62
2023-03-17T11:34:36.118Z,15.55
2023-03-17T11:37:10.177Z,14.85
2023-03-17T11:39:44.321Z,15.43
2023-03-17T11:42:31.904Z,15.79
2023-03-17T11:44:58.339Z,15.79
2023-03-17T11:47:33.271Z,16.77
2023-03-17T11:50:18.821Z,16.31
2023-03-17T11:52:54.402Z,15.96
2023-03-17T11:55:24.019Z,15.90
2023-03-17T11:57:55.810Z,15.82
2023-03-17T12:00:33.720Z,15.96
2023-03-17T12:03:08.673Z,16.63
2023-03-17T12:05:35.644Z,16.47
2023-03-17T12:08:05.813Z,14.98
2023-03-17T12:10:37.699Z,16.00
2023-03-17T12:13:04.818Z,15.10
2023-03-17T12:15:37.824Z,15.78
2023-03-17T12:18:09.557Z,16.77
2023-03-17T12:20:46.523Z,16.30
2023-03-17T12:23:32.705Z,16.84
2023-03-17T12:26:08.669Z,16.27
2023-03-17T12:28:55.661Z,17.27
2023-03-17T12:31:25.780Z,16.69
2023-03-17T12:34:00.743Z,17.81
2023-03-17T12:36:28.005Z,15.70
2023-03-17T12:38:59.190Z,16.51
2023-03-17T12:41:36.952Z,18.13
2023-03-17T12:44:07.936Z,17.69
2023-03-17T12:46:42.748Z,17.35
2023-03-17T12:49:28.190Z,17.50
2023-03-17T12:52:13.447Z,17.91
2023-03-17T12:54:44.767Z,17.12
2023-03-17T12:57:19.314Z,16.06
2023-03-17T12:59:47.732Z,16.67
2023-03-17T13:02:21.647Z,17.16
2023-03-17T13:05:01.381Z,17.61
2023-03-17T13:07:32.807Z,17.13
2023-03-17T13:10:02.320Z,17.48
2023-03-17T13:12:44.467Z,17.69
2023-03-17T13:15:30.874Z,18.52
2023-03-17T13:18:15.983Z,18.12
2023-03-17T13:20:42.490Z,17.88
2023-03-17T13:23:16.239Z,18.80
2023-03-17T13:25:51.576Z,18.12
2023-03-17T13:28:23.648Z,18.56
2023-03-17T13:30:59.135Z,18.48
2023-03-17T13:33:32.240Z,18.42
2023-03-17T13:36:07.994Z,18.36
2023-03-17T13:38:40.973Z,17.44
2023-03-17T13:41:33.066Z,17.87
2023-03-17T13:44:17.874Z,17.41
2023-03-17T13:46:46.713Z,16.53
2023-03-17T13:49:27.570Z,16.81
2023-03-17T13:52:17.529Z,16.82
2023-03-17T13:54:49.111Z,18.10
2023-03-17T13:57:24.171Z,18.42
2023-03-17T13:59:50.618Z,17.80
2023-03-17T14:02:18.767Z,18.11
2023-03-17T14:04:56.321Z,18.15
2023-03-17T14:07:25.637Z,16.74
2023-03-17T14:09:57.392Z,17.47
2023-03-17T14:12:44.958Z,17.28
2023-03-17T14:15:29.804Z,17.94
2023-03-17T14:17:59.406Z,18.07
2023-03-17T14:20:27.042Z,17.39
2023-03-17T14:23:03.894Z,18.01
2023-03-17T14:25:33.004Z,17.55
2023-03-17T14:28:00.147Z,17.83
2023-03-17T14:30:28.596Z,17.54
2023-03-17T14:32:58.398Z,18.19
2023-03-17T14:35:25.507Z,18.26
2023-03-17T14:37:51.955Z,18.05
2023-03-17T14:40:20.142Z,16.68
2023-03-17T14:42:46.603Z,16.64
2023-03-17T14:45:27.746Z,16.82
2023-03-17T14:47:54.425Z,16.59
2023-03-17T14:50:31.426Z,16.09
2023-03-17T14:52:59.359Z,16.41
2023-03-17T14:55:43.974Z,15.99
2023-03-17T14:58:22.732Z,15.54
2023-03-17T15:00:54.692Z,16.12
2023-03-17T15:03:22.771Z,15.62
2023-03-17T15:05:50.085Z,16.03
2023-03-17T15:08:34.544Z,15.75
2023-03-17T15:11:04.230Z,15.17
2023-03-17T15:13:33.227Z,15.43
2023-03-17T15:16:05.324Z,14.76
2023-03-17T15:18:31.979Z,14.64
2023-03-17T15:21:00.247Z,14.74
2023-03-17T15:23:28.880Z,15.04
2023-03-17T15:25:56.458Z,14.31
2023-03-17T15:28:24.758Z,14.50
2023-03-17T15:30:53.058Z,14.39
2023-03-17T15:33:29.034Z,14.09
2023-03-17T15:36:01.922Z,14.09
2023-03-17T15:38:28.620Z,13.92
2023-03-17T15:40:55.216Z,13.87
2023-03-17T15:43:22.023Z,14.29
2023-03-17T15:45:55.519Z,14.17
2023-03-17T15:48:26.465Z,14.28
2023-03-17T15:50:53.897Z,13.85
2023-03-17T15:53:20.336Z,13.72
2023-03-17T15:55:47.219Z,13.19
2023-03-17T15:58:14.141Z,12.69
2023-03-17T16:00:41.452Z,12.67
2023-03-17T16:03:08.873Z,12.67
2023-03-17T16:05:36.072Z,12.74
2023-03-17T16:08:02.512Z,12.60
2023-03-17T16:10:30.844Z,12.60
2023-03-17T16:12:57.713Z,12.45
2023-03-17T16:15:25.665Z,12.33
2023-03-17T16:17:53.572Z,12.31
2023-03-17T16:20:22.336Z,12.20
2023-03-17T16:22:49.227Z,12.06
2023-03-17T16:25:21.656Z,12.03
2023-03-17T16:27:48.937Z,11.84
2023-03-17T16:30:16.406Z,11.85
2023-03-17T16:32:42.874Z,11.75
2023-03-17T16:35:19.470Z,11.69
2023-03-17T16:37:46.273Z,11.78
2023-03-17T16:40:20.828Z,11.68
2023-03-17T16:42:47.914Z,11.55
2023-03-17T16:45:15.703Z,11.57
2023-03-17T16:47:42.131Z,11.53
2023-03-17T16:50:16.352Z,11.47
2023-03-17T16:52:42.811Z,11.61
2023-03-17T16:55:09.814Z,11.45
2023-03-17T16:57:37.037Z,11.25
2023-03-17T17:00:06.938Z,11.39
2023-03-17T17:02:33.864Z,11.22
2023-03-17T17:05:02.167Z,11.31
2023-03-17T17:07:28.833Z,11.22
2023-03-17T17:09:55.348Z,11.04
2023-03-17T17:12:21.785Z,10.96
2023-03-17T17:14:48.187Z,10.74
2023-03-17T17:17:14.774Z,10.44
2023-03-17T17:19:41.773Z,10.35
2023-03-17T17:22:10.472Z,10.15
2023-03-17T17:24:36.917Z,9.29
2023-03-17T17:27:03.408Z,9.34
2023-03-17T17:29:32.275Z,9.39
2023-03-17T17:31:59.008Z,8.98
2023-03-17T17:34:25.493Z,8.91
2023-03-17T17:36:51.998Z,9.00
2023-03-17T17:39:18.518Z,9.05
2023-03-17T17:41:45.172Z,8.61
2023-03-17T17:44:11.633Z,8.29
2023-03-17T17:46:38.166Z,8.19
2023-03-17T17:49:05.048Z,8.03
2023-03-17T17:51:32.706Z,8.04
2023-03-17T17:53:59.290Z,7.85
2023-03-17T17:56:26.008Z,7.76
2023-03-17T17:58:52.522Z,7.90
2023-03-17T18:01:22.333Z,7.50
2023-03-17T18:03:48.912Z,7.72
2023-03-17T18:06:17.097Z,7.73
2023-03-17T18:08:44.293Z,7.82
2023-03-17T18:11:10.904Z,7.57
2023-03-17T18:13:39.017Z,7.67
2023-03-17T18:16:09.669Z,7.35
2023-03-17T18:18:38.021Z,7.31
2023-03-17T18:21:04.545Z,7.20
2023-03-17T18:23:31.224Z,7.37
2023-03-17T18:26:01.656Z,7.21
2023-03-17T18:28:28.183Z,7.17
2023-03-17T18:30:55.114Z,7.11
2023-03-17T18:33:21.753Z,6.98
2023-03-17T18:35:49.385Z,7.13
2023-03-17T18:38:16.044Z,7.11
2023-03-17T18:40:43.049Z,7.06
2023-03-17T18:43:09.493Z,6.95
2023-03-17T18:45:36.135Z,6.90
2023-03-17T18:48:02.651Z,6.86
2023-03-17T18:50:29.128Z,6.71
2023-03-17T18:52:56.076Z,6.73
2023-03-17T18:55:22.664Z,6.72
2023-03-17T18:57:49.115Z,6.79
2023-03-17T19:00:17.346Z,6.69
2023-03-17T19:02:44.101Z,6.50
2023-03-17T19:05:11.606Z,6.57
2023-03-17T19:07:40.278Z,6.59
2023-03-17T19:10:07.187Z,6.46
2023-03-17T19:12:33.810Z,6.50
2023-03-17T19:15:00.426Z,6.46
2023-03-17T19:17:27.942Z,6.24
2023-03-17T19:19:54.369Z,6.31
2023-03-17T19:22:21.260Z,6.37
2023-03-17T19:24:50.095Z,6.29
2023-03-17T19:27:17.383Z,6.15
2023-03-17T19:29:43.891Z,6.13
2023-03-17T19:32:10.424Z,6.18
2023-03-17T19:34:37.046Z,6.03
2023-03-17T19:37:03.939Z,5.92
2023-03-17T19:39:31.325Z,5.80
2023-03-17T19:41:59.138Z,5.67
2023-03-17T19:44:25.937Z,5.85
2023-03-17T19:46:52.566Z,5.70
2023-03-17T19:49:21.106Z,5.78
2023-03-17T19:51:48.841Z,5.89
2023-03-17T19:54:15.459Z,5.68
2023-03-17T19:56:42.406Z,5.66
2023-03-17T19:59:08.957Z,5.69
2023-03-17T20:01:37.810Z,5.91
2023-03-17T20:04:06.714Z,5.59
2023-03-17T20:06:34.503Z,5.64
2023-03-17T20:09:03.737Z,5.42
2023-03-17T20:11:33.774Z,5.54
2023-03-17T20:14:01.118Z,5.58
2023-03-17T20:16:27.968Z,5.52
2023-03-17T20:18:54.480Z,5.56
2023-03-17T20:21:21.133Z,5.47
2023-03-17T20:23:47.574Z,5.39
2023-03-17T20:26:14.185Z,5.24
2023-03-17T20:28:40.704Z,5.39
2023-03-17T20:31:08.009Z,5.31
2023-03-17T20:33:35.056Z,5.39
2023-03-17T20:36:03.131Z,5.25
2023-03-17T20:38:31.280Z,5.38
2023-03-17T20:41:11.371Z,5.36
2023-03-17T20:43:38.205Z,5.32
2023-03-17T20:46:08.910Z,5.24
2023-03-17T20:48:37.089Z,5.13
2023-03-17T20:51:07.004Z,5.21
2023-03-17T20:53:34.245Z,5.22
2023-03-17T20:56:00.706Z,5.17
2023-03-17T20:58:27.677Z,5.06
2023-03-17T21:00:54.973Z,4.99
2023-03-17T21:03:21.551Z,5.00
2023-03-17T21:05:48.282Z,4.97
2023-03-17T21:08:14.788Z,4.93
2023-03-17T21:10:41.344Z,4.93
2023-03-17T21:13:07.825Z,4.79
2023-03-17T21:15:34.406Z,4.83
2023-03-17T21:18:01.053Z,4.84
2023-03-17T21:20:27.587Z,4.84
2023-03-17T21:22:54.053Z,4.71
2023-03-17T21:25:20.494Z,4.61
2023-03-17T21:27:47.014Z,4.74
2023-03-17T21:30:14.467Z,4.72
2023-03-17T21:32:41.810Z,4.53
2023-03-17T21:35:08.814Z,4.53
2023-03-17T21:37:35.427Z,4.56
2023-03-17T21:40:02.083Z,4.44
2023-03-17T21:42:29.111Z,4.52
2023-03-17T21:44:55.623Z,4.45
2023-03-17T21:47:22.136Z,4.27
2023-03-17T21:49:48.592Z,4.32
2023-03-17T21:52:15.282Z,4.22
2023-03-17T21:54:42.221Z,4.16
2023-03-17T21:57:08.690Z,4.05
2023-03-17T21:59:35.746Z,3.99
2023-03-17T22:02:02.860Z,4.03
2023-03-17T22:04:29.934Z,4.02
2023-03-17T22:06:56.668Z,3.90
2023-03-17T22:09:23.164Z,3.96
2023-03-17T22:11:49.793Z,3.83
2023-03-17T22:14:19.985Z,3.76
2023-03-17T22:16:47.312Z,3.77
2023-03-17T22:19:13.866Z,3.86
2023-03-17T22:21:40.588Z,3.70
2023-03-17T22:24:07.294Z,3.57
2023-03-17T22:26:34.236Z,3.72
2023-03-17T22:29:01.397Z,3.47
2023-03-17T22:31:28.835Z,3.40
2023-03-17T22:33:57.665Z,3.58
2023-03-17T22:36:25.172Z,3.60
2023-03-17T22:38:52.040Z,3.32
2023-03-17T22:41:19.812Z,3.37
2023-03-17T22:43:46.992Z,3.23
2023-03-17T22:46:14.133Z,3.48
2023-03-17T22:48:40.823Z,3.42
2023-03-17T22:51:09.111Z,3.30
2023-03-17T22:53:36.038Z,3.26
2023-03-17T22:56:03.783Z,3.07
2023-03-17T22:58:30.848Z,3.13
2023-03-17T23:00:57.387Z,3.05
2023-03-17T23:03:24.932Z,3.16
2023-03-17T23:05:52.446Z,3.05
2023-03-17T23:08:19.492Z,2.81
2023-03-17T23:10:47.715Z,2.87
2023-03-17T23:13:14.485Z,2.76
2023-03-17T23:15:41.627Z,2.87
2023-03-17T23:18:08.952Z,2.91
2023-03-17T23:20:35.667Z,2.89
2023-03-17T23:23:02.262Z,2.66
2023-03-17T23:25:28.731Z,2.79
2023-03-17T23:27:55.204Z,3.03
2023-03-17T23:30:21.707Z,3.12
2023-03-17T23:32:49.203Z,3.04
2023-03-17T23:35:16.115Z,2.82
2023-03-17T23:37:42.791Z,2.88
2023-03-17T23:40:10.452Z,2.78
2023-03-17T23:42:37.048Z,2.64
2023-03-17T23:45:04.331Z,2.69
2023-03-17T23:47:31.148Z,2.62
2023-03-17T23:49:57.681Z,2.58
2023-03-17T23:52:24.216Z,2.37
2023-03-17T23:54:51.123Z,2.30
2023-03-17T23:57:17.556Z,2.27
2023-03-17T23:59:43.992Z,2.37
